createdAt,value
2022-09-10T00:02:21.972Z,14.69
2022-09-10T00:04:50.524Z,14.62
2022-09-10T00:07:18.862Z,14.65
2022-09-10T00:09:46.163Z,14.55
2022-09-10T00:12:15.142Z,14.53
2022-09-10T00:14:42.531Z,14.66
2022-09-10T00:17:10.237Z,14.67
2022-09-10T00:19:37.835Z,14.63
2022-09-10T00:22:05.859Z,14.53
2022-09-10T00:24:34.574Z,14.56
2022-09-10T00:27:01.866Z,14.48
2022-09-10T00:29:29.357Z,14.48
2022-09-10T00:31:56.731Z,14.33
2022-09-10T00:34:24.178Z,14.30
2022-09-10T00:36:51.472Z,14.10
2022-09-10T00:39:18.954Z,14.20
2022-09-10T00:41:46.659Z,14.45
2022-09-10T00:44:35.656Z,14.16
2022-09-10T00:47:03.464Z,14.25
2022-09-10T00:49:35.036Z,14.25
2022-09-10T00:52:02.498Z,14.09
2022-09-10T00:54:29.920Z,13.88
2022-09-10T00:56:59.651Z,13.87
2022-09-10T00:59:27.094Z,13.94
2022-09-10T01:01:56.057Z,14.12
2022-09-10T01:04:23.658Z,14.25
2022-09-10T01:06:54.535Z,14.12
2022-09-10T01:09:21.914Z,14.13
2022-09-10T01:11:52.698Z,13.96
2022-09-10T01:14:20.074Z,14.06
2022-09-10T01:17:06.279Z,13.77
2022-09-10T01:19:41.981Z,13.89
2022-09-10T01:22:22.701Z,13.89
2022-09-10T01:24:57.554Z,13.88
2022-09-10T01:27:37.407Z,13.98
2022-09-10T01:30:09.387Z,13.97
2022-09-10T01:32:40.864Z,13.94
2022-09-10T01:35:17.384Z,13.84
2022-09-10T01:37:47.746Z,13.96
2022-09-10T01:40:17.176Z,13.90
2022-09-10T01:42:45.758Z,13.84
2022-09-10T01:45:13.933Z,13.80
2022-09-10T01:47:51.647Z,13.72
2022-09-10T01:50:22.086Z,13.75
2022-09-10T01:53:08.583Z,13.82
2022-09-10T01:55:39.788Z,13.79
2022-09-10T01:58:13.552Z,13.67
2022-09-10T02:00:50.838Z,13.61
2022-09-10T02:03:19.137Z,13.67
2022-09-10T02:05:49.387Z,13.68
2022-09-10T02:08:22.646Z,13.41
2022-09-10T02:10:56.686Z,13.58
2022-09-10T02:13:30.282Z,13.66
2022-09-10T02:16:24.279Z,13.62
2022-09-10T02:18:52.099Z,13.70
2022-09-10T02:21:19.810Z,13.78
2022-09-10T02:23:52.276Z,13.64
2022-09-10T02:26:20.297Z,13.66
2022-09-10T02:28:50.344Z,13.53
2022-09-10T02:31:18.835Z,13.52
2022-09-10T02:33:46.289Z,13.72
2022-09-10T02:36:14.156Z,13.94
2022-09-10T02:38:42.104Z,13.76
2022-09-10T02:41:10.111Z,13.93
2022-09-10T02:43:38.429Z,13.75
2022-09-10T02:46:07.483Z,13.56
2022-09-10T02:48:37.601Z,13.79
2022-09-10T02:51:05.492Z,13.74
2022-09-10T02:53:33.073Z,13.74
2022-09-10T02:56:04.253Z,13.74
2022-09-10T02:58:32.405Z,13.79
2022-09-10T03:01:14.862Z,13.70
2022-09-10T03:03:43.892Z,13.82
2022-09-10T03:06:11.308Z,13.66
2022-09-10T03:08:39.227Z,13.65
2022-09-10T03:11:07.236Z,13.70
2022-09-10T03:13:35.301Z,13.89
2022-09-10T03:16:04.413Z,13.68
2022-09-10T03:18:34.941Z,13.75
2022-09-10T03:21:13.386Z,13.53
2022-09-10T03:23:45.035Z,13.79
2022-09-10T03:26:14.436Z,13.59
2022-09-10T03:28:43.723Z,13.58
2022-09-10T03:31:13.874Z,13.61
2022-09-10T03:33:46.280Z,13.61
2022-09-10T03:36:14.837Z,13.50
2022-09-10T03:38:43.775Z,13.72
2022-09-10T03:41:11.386Z,13.51
2022-09-10T03:43:39.653Z,13.51
2022-09-10T03:46:12.178Z,13.21
2022-09-10T03:48:45.823Z,13.26
2022-09-10T03:51:14.269Z,13.38
2022-09-10T03:53:42.224Z,13.45
2022-09-10T03:56:10.731Z,13.49
2022-09-10T03:58:38.605Z,13.60
2022-09-10T04:01:06.320Z,13.39
2022-09-10T04:03:38.006Z,13.49
2022-09-10T04:06:05.427Z,13.36
2022-09-10T04:08:34.500Z,13.45
2022-09-10T04:11:02.404Z,13.52
2022-09-10T04:13:31.766Z,13.48
2022-09-10T04:16:02.435Z,13.50
2022-09-10T04:18:34.498Z,13.42
2022-09-10T04:21:03.160Z,13.42
2022-09-10T04:23:32.907Z,13.29
2022-09-10T04:26:10.692Z,13.67
2022-09-10T04:28:38.528Z,13.67
2022-09-10T04:31:05.913Z,13.51
2022-09-10T04:33:34.111Z,14.01
2022-09-10T04:36:04.721Z,13.72
2022-09-10T04:38:32.858Z,13.81
2022-09-10T04:41:00.930Z,13.65
2022-09-10T04:43:28.503Z,13.64
2022-09-10T04:45:56.403Z,13.66
2022-09-10T04:48:25.810Z,13.79
2022-09-10T04:51:15.396Z,13.61
2022-09-10T04:53:45.254Z,13.67
2022-09-10T04:56:12.999Z,13.41
2022-09-10T04:58:41.638Z,13.63
2022-09-10T05:01:09.784Z,13.69
2022-09-10T05:03:38.501Z,13.54
2022-09-10T05:06:07.398Z,13.46
2022-09-10T05:08:36.310Z,13.54
2022-09-10T05:11:05.325Z,13.63
2022-09-10T05:13:33.508Z,13.56
2022-09-10T05:16:02.236Z,13.78
2022-09-10T05:18:32.573Z,13.66
2022-09-10T05:21:00.459Z,13.36
2022-09-10T05:23:29.181Z,13.47
2022-09-10T05:25:58.885Z,13.76
2022-09-10T05:28:27.710Z,13.55
2022-09-10T05:30:55.126Z,13.29
2022-09-10T05:33:24.530Z,13.40
2022-09-10T05:35:52.315Z,13.59
2022-09-10T05:38:21.154Z,13.40
2022-09-10T05:40:49.130Z,13.50
2022-09-10T05:43:16.447Z,13.42
2022-09-10T05:45:45.815Z,13.55
2022-09-10T05:48:13.452Z,13.64
2022-09-10T05:50:41.523Z,13.62
2022-09-10T05:53:10.005Z,13.51
2022-09-10T05:55:38.189Z,13.44
2022-09-10T05:58:07.183Z,13.41
2022-09-10T06:00:37.358Z,13.79
2022-09-10T06:03:05.994Z,13.60
2022-09-10T06:05:52.079Z,13.49
2022-09-10T06:08:24.488Z,13.42
2022-09-10T06:11:05.269Z,13.58
2022-09-10T06:13:43.958Z,13.70
2022-09-10T06:16:12.665Z,13.77
2022-09-10T06:18:42.241Z,13.58
2022-09-10T06:21:16.913Z,13.89
2022-09-10T06:23:46.388Z,13.76
2022-09-10T06:26:17.388Z,13.70
2022-09-10T06:28:49.999Z,13.74
2022-09-10T06:31:19.896Z,13.70
2022-09-10T06:33:49.333Z,13.82
2022-09-10T06:36:20.459Z,13.75
2022-09-10T06:38:49.952Z,13.81
2022-09-10T06:41:17.499Z,13.98
2022-09-10T06:43:51.709Z,13.92
2022-09-10T06:49:36.703Z,14.01
2022-09-10T06:52:06.251Z,13.90
2022-09-10T06:54:34.755Z,14.07
2022-09-10T06:57:15.630Z,14.11
2022-09-10T07:00:08.635Z,14.15
2022-09-10T07:02:38.423Z,13.94
2022-09-10T07:05:07.347Z,14.20
2022-09-10T07:07:36.970Z,14.33
2022-09-10T07:10:09.913Z,14.02
2022-09-10T07:12:38.713Z,14.44
2022-09-10T07:15:08.051Z,14.31
2022-09-10T07:17:37.166Z,14.54
2022-09-10T07:20:04.862Z,14.66
2022-09-10T07:22:40.635Z,14.65
2022-09-10T07:25:10.445Z,14.65
2022-09-10T07:27:58.983Z,14.73
2022-09-10T07:30:27.448Z,14.50
2022-09-10T07:32:55.666Z,14.57
2022-09-10T07:35:26.745Z,14.72
2022-09-10T07:37:54.958Z,14.82
2022-09-10T07:40:23.569Z,14.49
2022-09-10T07:42:52.507Z,14.63
2022-09-10T07:45:20.238Z,14.71
2022-09-10T07:47:48.607Z,14.79
2022-09-10T07:50:16.814Z,14.72
2022-09-10T07:52:44.907Z,14.57
2022-09-10T07:55:14.168Z,14.84
2022-09-10T07:57:44.603Z,14.67
2022-09-10T08:00:12.579Z,14.80
2022-09-10T08:02:43.135Z,14.71
2022-09-10T08:05:15.672Z,14.80
2022-09-10T08:07:43.641Z,14.83
2022-09-10T08:10:11.250Z,15.03
2022-09-10T08:12:40.979Z,14.72
2022-09-10T08:15:08.945Z,14.86
2022-09-10T08:17:37.167Z,15.02
2022-09-10T08:20:07.182Z,14.81
2022-09-10T08:22:35.469Z,14.92
2022-09-10T08:25:02.964Z,14.90
2022-09-10T08:27:32.818Z,14.98
2022-09-10T08:30:04.947Z,14.99
2022-09-10T08:32:34.111Z,14.89
2022-09-10T08:35:05.059Z,15.02
2022-09-10T08:37:34.310Z,14.90
2022-09-10T08:40:03.343Z,14.96
2022-09-10T08:42:40.199Z,14.89
2022-09-10T08:45:13.868Z,15.24
2022-09-10T08:48:10.909Z,15.30
2022-09-10T08:50:50.705Z,15.00
2022-09-10T08:53:28.275Z,15.25
2022-09-10T08:56:02.566Z,15.12
2022-09-10T08:59:06.301Z,15.23
2022-09-10T09:01:40.783Z,15.27
2022-09-10T09:04:16.983Z,15.31
2022-09-10T09:06:48.372Z,15.49
2022-09-10T09:09:16.750Z,15.25
2022-09-10T09:11:48.450Z,15.20
2022-09-10T09:14:26.647Z,15.18
2022-09-10T09:17:14.051Z,15.25
2022-09-10T09:19:41.916Z,15.60
2022-09-10T09:22:39.364Z,15.57
2022-09-10T09:25:25.547Z,15.40
2022-09-10T09:27:59.263Z,15.90
2022-09-10T09:30:42.237Z,15.68
2022-09-10T09:33:13.917Z,15.94
2022-09-10T09:36:03.320Z,16.01
2022-09-10T09:38:44.045Z,15.86
2022-09-10T09:41:17.472Z,16.02
2022-09-10T09:43:50.807Z,15.91
2022-09-10T09:46:19.245Z,16.11
2022-09-10T09:48:56.204Z,16.14
2022-09-10T09:51:35.823Z,15.95
2022-09-10T09:57:01.554Z,16.50
2022-09-10T09:59:34.463Z,16.20
2022-09-10T10:02:05.882Z,16.40
2022-09-10T10:04:37.053Z,16.50
2022-09-10T10:07:12.096Z,16.23
2022-09-10T10:09:41.679Z,15.88
2022-09-10T10:12:16.974Z,16.13
2022-09-10T10:14:45.554Z,16.08
2022-09-10T10:17:22.125Z,16.09
2022-09-10T10:19:59.385Z,16.17
2022-09-10T10:22:27.862Z,16.16
2022-09-10T10:24:55.306Z,16.19
2022-09-10T10:27:35.966Z,16.18
2022-09-10T10:30:07.621Z,16.04
2022-09-10T10:32:44.856Z,16.18
2022-09-10T10:35:16.744Z,16.17
2022-09-10T10:37:47.984Z,16.36
2022-09-10T10:40:20.031Z,16.25
2022-09-10T10:42:47.478Z,16.39
2022-09-10T10:45:33.615Z,16.41
2022-09-10T10:48:02.288Z,16.30
2022-09-10T10:50:39.778Z,16.25
2022-09-10T10:53:12.012Z,16.37
2022-09-10T10:55:43.261Z,16.34
2022-09-10T10:58:29.658Z,16.49
2022-09-10T11:00:58.029Z,16.52
2022-09-10T11:03:27.225Z,16.66
2022-09-10T11:05:59.005Z,16.62
2022-09-10T11:08:28.020Z,16.56
2022-09-10T11:10:57.192Z,16.60
2022-09-10T11:13:32.023Z,16.63
2022-09-10T11:16:01.480Z,16.68
2022-09-10T11:18:37.605Z,16.84
2022-09-10T11:21:20.606Z,16.97
2022-09-10T11:23:51.413Z,16.90
2022-09-10T11:26:19.889Z,16.84
2022-09-10T11:28:47.557Z,16.96
2022-09-10T11:31:25.418Z,17.07
2022-09-10T11:33:57.902Z,17.19
2022-09-10T11:36:27.575Z,17.12
2022-09-10T11:39:04.310Z,17.06
2022-09-10T11:41:32.886Z,16.92
2022-09-10T11:44:00.298Z,17.24
2022-09-10T11:46:27.908Z,17.03
2022-09-10T11:49:01.890Z,17.11
2022-09-10T11:51:31.066Z,17.35
2022-09-10T11:53:58.410Z,17.42
2022-09-10T11:56:31.729Z,17.13
2022-09-10T11:59:09.235Z,17.13
2022-09-10T12:01:36.928Z,17.23
2022-09-10T12:04:07.252Z,17.38
2022-09-10T12:06:48.545Z,17.58
2022-09-10T12:09:21.816Z,17.52
2022-09-10T12:11:56.507Z,17.33
2022-09-10T12:14:23.876Z,17.33
2022-09-10T12:16:51.155Z,17.35
2022-09-10T12:19:29.341Z,17.46
2022-09-10T12:21:58.576Z,17.30
2022-09-10T12:24:27.359Z,17.07
2022-09-10T12:26:55.108Z,16.99
2022-09-10T12:29:43.273Z,16.99
2022-09-10T12:32:14.698Z,16.98
2022-09-10T12:34:42.581Z,16.95
2022-09-10T12:37:11.366Z,16.70
2022-09-10T12:39:39.211Z,16.26
2022-09-10T12:42:26.316Z,16.21
2022-09-10T12:44:54.249Z,16.31
2022-09-10T12:47:29.073Z,16.16
2022-09-10T12:49:57.381Z,16.15
2022-09-10T12:52:34.560Z,16.01
2022-09-10T12:55:01.874Z,15.98
2022-09-10T12:57:35.843Z,16.03
2022-09-10T13:00:12.258Z,16.04
2022-09-10T13:02:42.972Z,16.10
2022-09-10T13:05:26.431Z,16.36
2022-09-10T13:07:59.264Z,16.18
2022-09-10T13:10:27.162Z,16.44
2022-09-10T13:12:59.328Z,16.57
2022-09-10T13:15:28.820Z,16.69
2022-09-10T13:17:57.023Z,16.72
2022-09-10T13:20:27.445Z,16.68
2022-09-10T13:22:55.367Z,16.82
2022-09-10T13:25:37.065Z,17.04
2022-09-10T13:28:25.089Z,17.01
2022-09-10T13:31:02.048Z,16.94
2022-09-10T13:33:30.262Z,16.95
2022-09-10T13:36:16.231Z,16.97
2022-09-10T13:38:43.647Z,16.99
2022-09-10T13:41:31.994Z,16.99
2022-09-10T13:44:25.832Z,17.09
2022-09-10T13:46:55.215Z,17.15
2022-09-10T13:49:30.783Z,17.09
2022-09-10T13:51:59.144Z,16.98
2022-09-10T13:54:33.558Z,17.04
2022-09-10T13:57:03.569Z,17.06
2022-09-10T13:59:31.875Z,17.04
2022-09-10T14:02:02.252Z,17.11
2022-09-10T14:04:31.850Z,17.09
2022-09-10T14:07:07.200Z,16.82
2022-09-10T14:09:34.874Z,16.98
2022-09-10T14:12:02.895Z,16.96
2022-09-10T14:14:30.736Z,16.93
2022-09-10T14:17:00.132Z,16.91
2022-09-10T14:19:31.580Z,16.98
2022-09-10T14:22:00.691Z,16.86
2022-09-10T14:24:33.679Z,16.98
2022-09-10T14:27:04.804Z,16.93
2022-09-10T14:29:33.042Z,16.91
2022-09-10T14:32:16.056Z,16.90
2022-09-10T14:34:43.870Z,16.86
2022-09-10T14:37:24.781Z,16.85
2022-09-10T14:39:52.358Z,17.02
2022-09-10T14:42:25.294Z,17.01
2022-09-10T14:44:55.557Z,16.98
2022-09-10T14:47:35.144Z,17.03
2022-09-10T14:50:22.018Z,16.99
2022-09-10T14:52:49.607Z,17.10
2022-09-10T14:55:18.313Z,17.20
2022-09-10T14:57:46.717Z,17.16
2022-09-10T15:00:14.564Z,16.89
2022-09-10T15:02:42.223Z,17.05
2022-09-10T15:05:14.481Z,16.90
2022-09-10T15:07:45.513Z,16.93
2022-09-10T15:10:13.340Z,17.04
2022-09-10T15:12:41.799Z,16.94
2022-09-10T15:15:17.420Z,16.93
2022-09-10T15:17:47.583Z,16.95
2022-09-10T15:20:16.462Z,17.14
2022-09-10T15:22:44.552Z,16.99
2022-09-10T15:25:38.016Z,17.08
2022-09-10T15:28:07.808Z,17.00
2022-09-10T15:30:37.038Z,17.04
2022-09-10T15:33:04.925Z,17.12
2022-09-10T15:35:32.318Z,17.19
2022-09-10T15:38:03.901Z,17.03
2022-09-10T15:40:31.453Z,17.01
2022-09-10T15:42:59.014Z,17.18
2022-09-10T15:45:27.207Z,17.15
2022-09-10T15:47:54.970Z,17.16
2022-09-10T15:50:22.837Z,16.99
2022-09-10T15:52:50.253Z,17.01
2022-09-10T15:55:19.372Z,17.20
2022-09-10T15:57:50.359Z,17.01
2022-09-10T16:00:18.213Z,17.11
2022-09-10T16:02:49.702Z,17.10
2022-09-10T16:05:17.652Z,17.03
2022-09-10T16:07:47.990Z,17.04
2022-09-10T16:10:16.047Z,17.07
2022-09-10T16:12:43.606Z,17.14
2022-09-10T16:15:11.271Z,17.11
2022-09-10T16:17:38.873Z,17.03
2022-09-10T16:20:06.691Z,17.03
2022-09-10T16:22:34.606Z,16.98
2022-09-10T16:25:07.342Z,17.15
2022-09-10T16:27:35.186Z,17.13
2022-09-10T16:30:02.651Z,17.04
2022-09-10T16:32:30.746Z,17.11
2022-09-10T16:34:58.237Z,17.10
2022-09-10T16:37:26.247Z,17.21
2022-09-10T16:39:54.002Z,17.15
2022-09-10T16:42:21.777Z,17.20
2022-09-10T16:44:49.309Z,17.18
2022-09-10T16:47:16.766Z,17.09
2022-09-10T16:49:44.477Z,17.01
2022-09-10T16:52:12.252Z,17.07
2022-09-10T16:54:40.554Z,17.26
2022-09-10T16:57:08.507Z,17.15
2022-09-10T16:59:35.970Z,17.17
2022-09-10T17:02:04.740Z,17.10
2022-09-10T17:04:33.798Z,17.17
2022-09-10T17:07:02.378Z,17.10
2022-09-10T17:09:29.725Z,17.03
2022-09-10T17:11:57.099Z,16.97
2022-09-10T17:14:24.928Z,16.94
2022-09-10T17:16:52.402Z,17.06
2022-09-10T17:19:23.745Z,17.04
2022-09-10T17:21:53.091Z,17.10
2022-09-10T17:24:24.488Z,16.96
2022-09-10T17:26:54.457Z,17.11
2022-09-10T17:29:24.455Z,16.94
2022-09-10T17:31:58.738Z,17.00
2022-09-10T17:34:28.067Z,17.07
2022-09-10T17:36:56.462Z,16.99
2022-09-10T17:39:28.845Z,16.92
2022-09-10T17:41:56.650Z,17.06
2022-09-10T17:44:25.875Z,17.06
2022-09-10T17:46:53.733Z,17.07
2022-09-10T17:49:23.502Z,17.05
2022-09-10T17:51:51.942Z,17.04
2022-09-10T17:54:19.817Z,17.09
2022-09-10T17:56:47.330Z,17.11
2022-09-10T17:59:15.371Z,17.13
2022-09-10T18:01:44.084Z,17.18
2022-09-10T18:04:13.338Z,17.05
2022-09-10T18:06:41.084Z,17.11
2022-09-10T18:09:08.857Z,17.20
2022-09-10T18:11:37.437Z,17.06
2022-09-10T18:14:05.076Z,17.15
2022-09-10T18:16:33.080Z,17.04
2022-09-10T18:19:01.553Z,17.04
2022-09-10T18:21:31.199Z,17.08
2022-09-10T18:24:05.636Z,17.06
2022-09-10T18:26:34.800Z,17.07
2022-09-10T18:29:02.916Z,17.06
2022-09-10T18:31:31.479Z,17.21
2022-09-10T18:33:59.516Z,17.15
2022-09-10T18:36:28.917Z,17.25
2022-09-10T18:38:56.367Z,17.06
2022-09-10T18:41:27.745Z,17.14
2022-09-10T18:43:58.945Z,17.04
2022-09-10T18:46:26.784Z,17.06
2022-09-10T18:48:54.226Z,17.19
2022-09-10T18:51:22.336Z,17.07
2022-09-10T18:53:52.690Z,17.17
2022-09-10T18:56:20.576Z,17.16
2022-09-10T18:58:49.178Z,17.11
2022-09-10T19:01:16.687Z,17.28
2022-09-10T19:03:44.600Z,17.14
2022-09-10T19:06:23.120Z,17.04
2022-09-10T19:08:53.295Z,17.27
2022-09-10T19:11:21.340Z,17.23
2022-09-10T19:13:49.568Z,17.34
2022-09-10T19:16:17.290Z,17.19
2022-09-10T19:18:46.675Z,17.30
2022-09-10T19:21:14.297Z,17.22
2022-09-10T19:23:41.762Z,17.27
2022-09-10T19:26:10.139Z,17.36
2022-09-10T19:28:39.756Z,17.33
2022-09-10T19:31:07.720Z,17.39
2022-09-10T19:33:36.475Z,17.37
2022-09-10T19:36:04.393Z,17.48
2022-09-10T19:38:38.412Z,17.45
2022-09-10T19:41:12.311Z,17.57
2022-09-10T19:43:40.775Z,17.54
2022-09-10T19:46:10.747Z,17.51
2022-09-10T19:48:39.022Z,17.47
2022-09-10T19:51:06.605Z,17.52
2022-09-10T19:53:34.554Z,17.35
2022-09-10T19:56:11.709Z,17.45
2022-09-10T19:58:40.054Z,17.41
2022-09-10T20:01:17.780Z,17.39
2022-09-10T20:03:45.660Z,17.43
2022-09-10T20:06:13.510Z,17.45
2022-09-10T20:08:41.865Z,17.47
2022-09-10T20:11:13.713Z,17.45
2022-09-10T20:13:41.578Z,17.52
2022-09-10T20:16:09.967Z,17.56
2022-09-10T20:18:37.887Z,17.50
2022-09-10T20:21:13.013Z,17.46
2022-09-10T20:23:44.179Z,17.56
2022-09-10T20:26:16.016Z,17.45
2022-09-10T20:28:43.574Z,17.39
2022-09-10T20:31:11.763Z,17.47
2022-09-10T20:33:39.924Z,17.33
2022-09-10T20:36:10.956Z,17.35
2022-09-10T20:38:38.894Z,17.36
2022-09-10T20:41:06.306Z,17.34
2022-09-10T20:43:34.366Z,17.32
2022-09-10T20:46:03.928Z,17.25
2022-09-10T20:48:31.933Z,17.12
2022-09-10T20:50:59.807Z,17.28
2022-09-10T20:53:28.490Z,17.32
2022-09-10T20:56:06.459Z,17.33
2022-09-10T20:58:35.549Z,17.33
2022-09-10T21:01:09.951Z,17.25
2022-09-10T21:03:37.692Z,17.22
2022-09-10T21:06:05.359Z,17.25
2022-09-10T21:08:33.403Z,17.26
2022-09-10T21:11:05.145Z,17.42
2022-09-10T21:13:35.023Z,17.36
2022-09-10T21:16:10.020Z,17.20
2022-09-10T21:18:41.887Z,17.32
2022-09-10T21:21:10.174Z,17.25
2022-09-10T21:23:50.275Z,17.34
2022-09-10T21:26:18.305Z,17.30
2022-09-10T21:28:45.629Z,17.32
2022-09-10T21:31:14.123Z,17.39
2022-09-10T21:33:41.860Z,17.24
2022-09-10T21:36:10.331Z,16.99
2022-09-10T21:38:38.076Z,17.11
2022-09-10T21:41:06.725Z,17.06
2022-09-10T21:43:34.869Z,17.21
2022-09-10T21:46:09.806Z,17.24
2022-09-10T21:48:37.976Z,17.20
2022-09-10T21:51:06.385Z,17.10
2022-09-10T21:53:34.267Z,17.18
2022-09-10T21:56:01.979Z,17.12
2022-09-10T21:58:30.259Z,17.05
2022-09-10T22:00:58.518Z,17.05
2022-09-10T22:03:26.522Z,17.00
2022-09-10T22:05:53.871Z,16.99
2022-09-10T22:08:21.521Z,17.02
2022-09-10T22:10:50.747Z,16.98
2022-09-10T22:13:18.236Z,16.99
2022-09-10T22:15:45.608Z,16.86
2022-09-10T22:18:13.137Z,17.03
2022-09-10T22:20:40.552Z,17.02
2022-09-10T22:23:07.985Z,17.09
2022-09-10T22:25:35.647Z,17.06
2022-09-10T22:28:03.967Z,17.02
2022-09-10T22:30:31.310Z,17.04
2022-09-10T22:32:58.644Z,17.07
2022-09-10T22:35:26.500Z,17.02
2022-09-10T22:37:54.879Z,17.03
2022-09-10T22:40:24.068Z,16.97
2022-09-10T22:42:51.795Z,16.99
2022-09-10T22:45:20.801Z,16.90
2022-09-10T22:47:48.464Z,16.97
2022-09-10T22:50:15.771Z,16.89
2022-09-10T22:52:46.746Z,16.93
2022-09-10T22:55:14.332Z,16.90
2022-09-10T22:57:42.037Z,16.83
2022-09-10T23:00:12.977Z,16.80
2022-09-10T23:02:42.346Z,16.80
2022-09-10T23:05:09.706Z,16.85
2022-09-10T23:07:37.192Z,16.87
2022-09-10T23:10:04.688Z,16.87
2022-09-10T23:12:32.285Z,16.83
2022-09-10T23:14:59.555Z,16.88
2022-09-10T23:17:26.922Z,16.65
2022-09-10T23:19:54.232Z,16.67
2022-09-10T23:22:22.194Z,16.58
2022-09-10T23:24:49.588Z,16.67
2022-09-10T23:27:16.939Z,16.69
2022-09-10T23:29:45.466Z,16.61
2022-09-10T23:32:12.949Z,16.59
2022-09-10T23:34:40.550Z,16.52
2022-09-10T23:37:10.192Z,16.51
2022-09-10T23:39:37.678Z,16.52
2022-09-10T23:42:05.236Z,16.50
2022-09-10T23:44:33.211Z,16.47
2022-09-10T23:47:00.662Z,16.45
2022-09-10T23:49:28.073Z,16.44
2022-09-10T23:51:55.411Z,16.50
2022-09-10T23:54:22.823Z,16.41
2022-09-10T23:56:50.285Z,16.39
2022-09-10T23:59:18.129Z,16.27
